createdAt,value
2023-12-13T00:01:08.505Z,8.63
2023-12-13T00:03:35.847Z,12.03
2023-12-13T00:06:03.016Z,11.87
2023-12-13T00:08:30.158Z,12.10
2023-12-13T00:10:59.636Z,11.27
2023-12-13T00:13:28.180Z,11.57
2023-12-13T00:15:55.382Z,10.30
2023-12-13T00:18:22.609Z,10.30
2023-12-13T00:20:49.781Z,9.20
2023-12-13T00:23:16.933Z,8.27
2023-12-13T00:25:44.158Z,7.40
2023-12-13T00:28:11.360Z,6.97
2023-12-13T00:30:38.615Z,5.10
2023-12-13T00:33:05.909Z,4.27
2023-12-13T00:35:33.092Z,4.07
2023-12-13T00:38:00.431Z,3.97
2023-12-13T00:40:27.704Z,3.83
2023-12-13T00:42:55.519Z,3.70
2023-12-13T00:45:22.909Z,3.60
2023-12-13T00:47:50.246Z,3.40
2023-12-13T00:50:17.477Z,3.33
2023-12-13T00:52:44.621Z,3.47
2023-12-13T00:55:11.858Z,3.23
2023-12-13T00:57:39.230Z,3.43
2023-12-13T01:00:06.942Z,3.70
2023-12-13T01:02:34.140Z,3.57
2023-12-13T01:05:01.486Z,3.43
2023-12-13T01:07:28.674Z,3.23
2023-12-13T01:09:55.818Z,3.27
2023-12-13T01:12:23.766Z,3.63
2023-12-13T01:14:50.929Z,3.70
2023-12-13T01:17:18.081Z,3.40
2023-12-13T01:19:45.286Z,3.67
2023-12-13T01:22:12.521Z,3.73
2023-12-13T01:24:39.785Z,3.67
2023-12-13T01:27:06.944Z,3.87
2023-12-13T01:29:34.152Z,3.77
2023-12-13T01:32:01.321Z,3.27
2023-12-13T01:34:28.503Z,3.77
2023-12-13T01:36:55.661Z,4.07
2023-12-13T01:39:22.837Z,3.50
2023-12-13T01:41:49.988Z,3.90
2023-12-13T01:44:17.181Z,3.80
2023-12-13T01:46:44.786Z,4.60
2023-12-13T01:49:13.849Z,4.77
2023-12-13T01:51:41.967Z,5.00
2023-12-13T01:54:11.483Z,4.93
2023-12-13T01:56:43.193Z,5.23
2023-12-13T01:59:10.799Z,4.90
2023-12-13T02:01:38.362Z,4.80
2023-12-13T02:04:05.996Z,5.20
2023-12-13T02:06:33.133Z,5.67
2023-12-13T02:09:00.408Z,5.37
2023-12-13T02:11:28.568Z,5.10
2023-12-13T02:13:56.036Z,4.97
2023-12-13T02:16:23.220Z,5.27
2023-12-13T02:18:50.480Z,4.87
2023-12-13T02:21:17.992Z,4.67
2023-12-13T02:23:45.237Z,4.37
2023-12-13T02:26:14.141Z,4.40
2023-12-13T02:28:41.851Z,4.40
2023-12-13T02:31:11.098Z,4.60
2023-12-13T02:33:41.573Z,3.80
2023-12-13T02:36:10.460Z,3.33
2023-12-13T02:38:37.669Z,3.57
2023-12-13T02:41:05.778Z,3.40
2023-12-13T02:43:33.070Z,3.30
2023-12-13T02:46:00.566Z,3.10
2023-12-13T02:48:27.866Z,2.87
2023-12-13T02:50:55.077Z,2.77
2023-12-13T02:53:22.815Z,2.60
2023-12-13T02:55:50.485Z,2.70
2023-12-13T02:58:17.772Z,2.90
2023-12-13T03:00:45.009Z,2.77
2023-12-13T03:03:12.296Z,2.93
2023-12-13T03:05:39.580Z,3.03
2023-12-13T03:08:06.730Z,2.93
2023-12-13T03:10:33.897Z,2.77
2023-12-13T03:13:01.190Z,2.60
2023-12-13T03:15:28.357Z,2.80
2023-12-13T03:17:55.646Z,2.90
2023-12-13T03:20:22.991Z,2.80
2023-12-13T03:22:50.189Z,2.90
2023-12-13T03:25:17.791Z,3.03
2023-12-13T03:27:45.672Z,2.93
2023-12-13T03:30:13.073Z,2.97
2023-12-13T03:32:40.430Z,2.90
2023-12-13T03:35:08.106Z,2.93
2023-12-13T03:37:36.000Z,3.53
2023-12-13T03:40:04.252Z,3.27
2023-12-13T03:42:31.498Z,3.53
2023-12-13T03:44:58.664Z,3.40
2023-12-13T03:47:25.988Z,3.50
2023-12-13T03:49:53.504Z,3.50
2023-12-13T03:52:20.744Z,3.23
2023-12-13T03:54:47.921Z,2.97
2023-12-13T03:57:15.291Z,3.20
2023-12-13T03:59:42.482Z,2.70
2023-12-13T04:02:10.165Z,2.70
2023-12-13T04:04:37.657Z,2.70
2023-12-13T04:07:07.203Z,2.47
2023-12-13T04:09:34.419Z,2.30
2023-12-13T04:12:03.430Z,2.63
2023-12-13T04:14:30.611Z,2.90
2023-12-13T04:16:57.826Z,2.63
2023-12-13T04:19:25.108Z,2.17
2023-12-13T04:21:52.335Z,2.03
2023-12-13T04:24:19.491Z,2.17
2023-12-13T04:26:46.668Z,2.80
2023-12-13T04:29:13.797Z,2.70
2023-12-13T04:31:41.349Z,2.53
2023-12-13T04:34:09.158Z,2.17
2023-12-13T04:36:36.358Z,2.50
2023-12-13T04:39:04.521Z,2.20
2023-12-13T04:41:33.459Z,2.10
2023-12-13T04:44:00.985Z,2.40
2023-12-13T04:46:28.387Z,2.43
2023-12-13T04:48:55.667Z,2.47
2023-12-13T04:51:22.856Z,2.50
2023-12-13T04:53:50.298Z,3.00
2023-12-13T04:56:17.796Z,2.33
2023-12-13T04:58:45.001Z,2.73
2023-12-13T05:01:12.357Z,2.30
2023-12-13T05:03:39.580Z,2.10
2023-12-13T05:06:06.940Z,2.17
2023-12-13T05:08:34.677Z,2.17
2023-12-13T05:11:02.124Z,2.40
2023-12-13T05:13:29.560Z,2.20
2023-12-13T05:15:56.733Z,2.53
2023-12-13T05:18:23.983Z,2.40
2023-12-13T05:20:51.388Z,2.27
2023-12-13T05:23:18.554Z,2.47
2023-12-13T05:25:45.860Z,2.20
2023-12-13T05:28:13.154Z,2.10
2023-12-13T05:30:40.364Z,2.10
2023-12-13T05:33:08.485Z,2.10
2023-12-13T05:35:35.920Z,2.00
2023-12-13T05:38:03.599Z,2.27
2023-12-13T05:40:31.514Z,2.50
2023-12-13T05:42:58.635Z,2.40
2023-12-13T05:45:25.749Z,2.57
2023-12-13T05:47:52.980Z,2.30
2023-12-13T05:50:20.474Z,1.97
2023-12-13T05:52:47.714Z,2.43
2023-12-13T05:55:14.937Z,2.60
2023-12-13T05:57:42.106Z,2.57
2023-12-13T06:00:09.846Z,2.53
2023-12-13T06:02:37.518Z,2.60
2023-12-13T06:05:05.179Z,2.70
2023-12-13T06:07:33.624Z,3.30
2023-12-13T06:10:00.965Z,3.57
2023-12-13T06:12:28.074Z,3.43
2023-12-13T06:14:59.198Z,3.43
2023-12-13T06:17:26.836Z,3.80
2023-12-13T06:19:54.080Z,4.07
2023-12-13T06:22:21.364Z,4.07
2023-12-13T06:24:48.507Z,4.80
2023-12-13T06:27:15.686Z,4.90
2023-12-13T06:29:42.908Z,4.47
2023-12-13T06:32:10.693Z,4.40
2023-12-13T06:34:37.939Z,4.20
2023-12-13T06:37:05.303Z,4.20
2023-12-13T06:39:32.459Z,3.73
2023-12-13T06:41:59.661Z,5.27
2023-12-13T06:44:26.818Z,4.37
2023-12-13T06:46:54.002Z,4.03
2023-12-13T06:49:23.756Z,3.53
2023-12-13T06:51:52.004Z,3.30
2023-12-13T06:54:19.669Z,3.63
2023-12-13T06:56:46.827Z,3.43
2023-12-13T06:59:13.952Z,3.27
2023-12-13T07:01:41.865Z,3.37
2023-12-13T07:04:09.131Z,3.13
2023-12-13T07:06:36.351Z,3.43
2023-12-13T07:09:03.961Z,3.10
2023-12-13T07:11:31.345Z,3.00
2023-12-13T07:13:58.754Z,3.50
2023-12-13T07:16:26.017Z,3.50
2023-12-13T07:18:53.843Z,3.57
2023-12-13T07:21:21.258Z,3.30
2023-12-13T07:23:49.277Z,3.40
2023-12-13T07:26:17.941Z,3.27
2023-12-13T07:28:45.426Z,3.07
2023-12-13T07:31:12.700Z,3.47
2023-12-13T07:33:41.985Z,3.30
2023-12-13T07:36:09.999Z,3.10
2023-12-13T07:38:37.146Z,3.20
2023-12-13T07:41:04.365Z,3.20
2023-12-13T07:43:32.829Z,2.53
2023-12-13T07:46:00.003Z,2.50
2023-12-13T07:48:30.067Z,2.20
2023-12-13T07:50:59.684Z,2.33
2023-12-13T07:53:27.039Z,2.10
2023-12-13T07:55:54.685Z,2.13
2023-12-13T07:58:21.984Z,2.60
2023-12-13T08:00:49.331Z,2.33
2023-12-13T08:03:16.583Z,2.50
2023-12-13T08:05:43.810Z,2.50
2023-12-13T08:08:11.011Z,2.53
2023-12-13T08:10:38.376Z,2.50
2023-12-13T08:13:05.679Z,2.37
2023-12-13T08:15:32.930Z,2.60
2023-12-13T08:18:00.402Z,2.73
2023-12-13T08:20:30.696Z,2.70
2023-12-13T08:22:58.685Z,1.93
2023-12-13T08:25:26.081Z,1.90
2023-12-13T08:27:53.281Z,2.37
2023-12-13T08:30:22.614Z,2.23
2023-12-13T08:32:49.857Z,2.60
2023-12-13T08:35:17.124Z,2.90
2023-12-13T08:37:44.390Z,3.10
2023-12-13T08:40:11.857Z,3.30
2023-12-13T08:42:42.787Z,3.73
2023-12-13T08:45:13.012Z,3.33
2023-12-13T08:47:40.917Z,2.97
2023-12-13T08:50:08.847Z,3.30
2023-12-13T08:52:36.126Z,3.27
2023-12-13T08:55:03.772Z,2.93
2023-12-13T08:57:30.920Z,3.17
2023-12-13T09:00:05.749Z,3.20
2023-12-13T09:02:37.731Z,3.27
2023-12-13T09:05:05.325Z,2.70
2023-12-13T09:07:33.291Z,2.90
2023-12-13T09:10:01.003Z,2.83
2023-12-13T09:12:28.869Z,2.67
2023-12-13T09:14:56.072Z,3.00
2023-12-13T09:17:23.223Z,3.30
2023-12-13T09:19:50.717Z,3.17
2023-12-13T09:22:18.917Z,3.03
2023-12-13T09:24:46.267Z,2.80
2023-12-13T09:27:13.498Z,3.00
2023-12-13T09:29:40.690Z,2.60
2023-12-13T09:32:07.943Z,2.83
2023-12-13T09:34:35.130Z,2.60
2023-12-13T09:37:02.319Z,2.50
2023-12-13T09:39:29.485Z,2.90
2023-12-13T09:42:02.030Z,2.90
2023-12-13T09:44:30.080Z,3.03
2023-12-13T09:46:59.968Z,3.00
2023-12-13T09:49:36.888Z,3.03
2023-12-13T09:52:07.351Z,2.80
2023-12-13T09:54:38.102Z,2.50
2023-12-13T09:57:06.174Z,2.40
2023-12-13T09:59:33.351Z,2.63
2023-12-13T10:02:00.990Z,2.23
2023-12-13T10:04:29.135Z,2.80
2023-12-13T10:06:56.799Z,2.90
2023-12-13T10:09:30.420Z,2.90
2023-12-13T10:11:59.832Z,2.87
2023-12-13T10:14:27.158Z,2.63
2023-12-13T10:17:03.736Z,3.20
2023-12-13T10:19:39.282Z,2.87
2023-12-13T10:22:07.005Z,3.60
2023-12-13T10:24:34.990Z,3.77
2023-12-13T10:27:02.251Z,2.80
2023-12-13T10:29:30.838Z,3.00
2023-12-13T10:31:59.178Z,2.37
2023-12-13T10:34:26.649Z,2.10
2023-12-13T10:36:55.862Z,2.10
2023-12-13T10:39:25.252Z,2.20
2023-12-13T10:41:56.729Z,2.53
2023-12-13T10:44:24.585Z,1.80
2023-12-13T10:46:57.792Z,1.70
2023-12-13T10:49:26.164Z,1.60
2023-12-13T10:51:54.187Z,1.77
2023-12-13T10:54:21.870Z,1.57
2023-12-13T10:56:49.839Z,1.60
2023-12-13T10:59:17.549Z,1.70
2023-12-13T11:01:46.622Z,1.63
2023-12-13T11:04:17.756Z,1.60
2023-12-13T11:06:46.979Z,1.60
2023-12-13T11:09:22.350Z,1.93
2023-12-13T11:11:49.710Z,1.70
2023-12-13T11:14:18.708Z,1.43
2023-12-13T11:16:50.599Z,1.60
2023-12-13T11:19:22.273Z,1.43
2023-12-13T11:21:53.624Z,1.60
2023-12-13T11:24:24.130Z,2.00
2023-12-13T11:26:52.452Z,1.70
2023-12-13T11:29:21.416Z,1.50
2023-12-13T11:31:52.711Z,1.40
2023-12-13T11:34:20.633Z,1.83
2023-12-13T11:36:47.857Z,1.70
2023-12-13T11:39:15.166Z,1.63
2023-12-13T11:41:42.828Z,1.40
2023-12-13T11:44:10.076Z,1.90
2023-12-13T11:46:38.211Z,1.50
2023-12-13T11:49:05.439Z,1.30
2023-12-13T11:51:32.597Z,1.43
2023-12-13T11:53:59.955Z,1.67
2023-12-13T11:56:27.124Z,1.37
2023-12-13T11:58:54.384Z,1.27
2023-12-13T12:01:21.895Z,1.33
2023-12-13T12:03:49.263Z,1.30
2023-12-13T12:06:19.980Z,1.10
2023-12-13T12:08:47.292Z,1.20
2023-12-13T12:11:14.702Z,1.20
2023-12-13T12:13:42.828Z,1.43
2023-12-13T12:16:11.354Z,1.40
2023-12-13T12:18:42.657Z,1.30
2023-12-13T12:21:09.925Z,1.60
2023-12-13T12:23:39.634Z,1.50
2023-12-13T12:26:15.581Z,1.10
2023-12-13T12:28:43.275Z,1.33
2023-12-13T12:31:15.612Z,1.20
2023-12-13T12:33:44.795Z,1.17
2023-12-13T12:36:12.671Z,1.10
2023-12-13T12:38:41.146Z,1.13
2023-12-13T12:41:08.335Z,1.30
2023-12-13T12:43:38.409Z,1.50
2023-12-13T12:46:06.365Z,1.03
2023-12-13T12:48:34.411Z,1.10
2023-12-13T12:51:01.744Z,1.20
2023-12-13T12:53:29.014Z,1.60
2023-12-13T12:55:57.992Z,1.40
2023-12-13T12:58:25.375Z,1.33
2023-12-13T13:00:52.548Z,1.33
2023-12-13T13:03:19.799Z,1.37
2023-12-13T13:05:47.044Z,1.90
2023-12-13T13:08:14.813Z,1.53
2023-12-13T13:10:42.033Z,1.27
2023-12-13T13:13:09.207Z,1.47
2023-12-13T13:15:36.794Z,2.00
2023-12-13T13:18:04.086Z,3.77
2023-12-13T13:20:31.262Z,1.77
2023-12-13T13:22:58.451Z,1.77
2023-12-13T13:25:25.692Z,2.23
2023-12-13T13:27:54.450Z,1.80
2023-12-13T13:30:21.741Z,1.67
2023-12-13T13:32:50.132Z,1.70
2023-12-13T13:35:17.392Z,2.40
2023-12-13T13:37:44.651Z,1.73
2023-12-13T13:40:14.010Z,1.30
2023-12-13T13:42:41.193Z,1.30
2023-12-13T13:45:08.538Z,1.30
2023-12-13T13:47:35.986Z,1.10
2023-12-13T13:50:04.888Z,0.90
2023-12-13T13:52:32.292Z,0.80
2023-12-13T13:54:59.791Z,0.77
2023-12-13T13:57:27.150Z,1.10
2023-12-13T13:59:54.284Z,0.80
2023-12-13T14:02:25.218Z,0.90
2023-12-13T14:04:52.486Z,1.07
2023-12-13T14:07:19.723Z,1.10
2023-12-13T14:09:46.876Z,1.00
2023-12-13T14:12:14.316Z,1.30
2023-12-13T14:14:41.467Z,1.17
2023-12-13T14:17:08.597Z,1.00
2023-12-13T14:19:35.751Z,1.07
2023-12-13T14:22:03.320Z,1.20
2023-12-13T14:24:30.476Z,1.40
2023-12-13T14:26:57.621Z,1.20
2023-12-13T14:29:26.924Z,1.10
2023-12-13T14:31:54.729Z,1.60
2023-12-13T14:34:21.956Z,1.20
2023-12-13T14:36:51.067Z,1.03
2023-12-13T14:39:23.586Z,1.30
2023-12-13T14:41:50.974Z,1.30
2023-12-13T14:44:19.717Z,1.10
2023-12-13T14:46:47.106Z,1.63
2023-12-13T14:49:14.505Z,2.20
2023-12-13T14:51:43.532Z,1.70
2023-12-13T14:54:10.823Z,1.90
2023-12-13T14:56:38.061Z,1.90
2023-12-13T14:59:05.792Z,2.10
2023-12-13T15:01:33.234Z,2.40
2023-12-13T15:04:00.525Z,2.30
2023-12-13T15:06:28.160Z,2.23
2023-12-13T15:08:55.378Z,2.20
2023-12-13T15:11:25.230Z,2.13
2023-12-13T15:13:52.375Z,2.20
2023-12-13T15:16:19.650Z,1.90
2023-12-13T15:18:46.907Z,1.73
2023-12-13T15:21:14.231Z,2.20
2023-12-13T15:23:41.704Z,1.73
2023-12-13T15:26:09.574Z,2.20
2023-12-13T15:28:37.589Z,2.00
2023-12-13T15:31:08.294Z,1.70
2023-12-13T15:33:35.976Z,1.53
2023-12-13T15:36:03.165Z,1.73
2023-12-13T15:38:30.306Z,1.90
2023-12-13T15:40:57.506Z,1.90
2023-12-13T15:43:24.685Z,1.57
2023-12-13T15:45:51.886Z,2.63
2023-12-13T15:48:19.177Z,4.47
2023-12-13T15:50:46.331Z,6.47
2023-12-13T15:53:13.514Z,3.27
2023-12-13T15:55:40.682Z,2.00
2023-12-13T15:58:08.601Z,1.70
2023-12-13T16:00:38.066Z,1.70
2023-12-13T16:03:05.286Z,1.53
2023-12-13T16:05:32.514Z,1.60
2023-12-13T16:07:59.773Z,1.80
2023-12-13T16:10:27.049Z,2.30
2023-12-13T16:12:54.303Z,2.90
2023-12-13T16:15:21.512Z,4.57
2023-12-13T16:17:49.411Z,5.57
2023-12-13T16:20:16.816Z,4.00
2023-12-13T16:22:44.065Z,4.33
2023-12-13T16:25:11.244Z,5.07
2023-12-13T16:27:38.366Z,5.43
2023-12-13T16:30:05.855Z,8.87
2023-12-13T16:32:33.442Z,5.80
2023-12-13T16:35:00.986Z,5.70
2023-12-13T16:37:32.332Z,7.43
2023-12-13T16:39:59.494Z,29.57
2023-12-13T16:42:26.637Z,10.07
2023-12-13T16:44:53.825Z,11.50
2023-12-13T16:47:21.032Z,9.37
2023-12-13T16:49:48.393Z,9.70
2023-12-13T16:52:16.245Z,8.47
2023-12-13T16:54:46.161Z,8.83
2023-12-13T16:57:14.718Z,8.50
2023-12-13T16:59:42.568Z,7.83
2023-12-13T17:02:10.130Z,8.33
2023-12-13T17:04:37.390Z,7.80
2023-12-13T17:07:04.630Z,7.10
2023-12-13T17:09:32.664Z,8.43
2023-12-13T17:11:59.828Z,7.83
2023-12-13T17:14:26.981Z,7.83
2023-12-13T17:16:54.187Z,8.20
2023-12-13T17:19:21.460Z,10.07
2023-12-13T17:21:48.787Z,10.60
2023-12-13T17:24:16.029Z,7.60
2023-12-13T17:26:43.342Z,7.97
2023-12-13T17:29:11.426Z,9.30
2023-12-13T17:31:40.396Z,9.43
2023-12-13T17:34:07.857Z,9.50
2023-12-13T17:36:37.625Z,8.67
2023-12-13T17:39:04.996Z,9.20
2023-12-13T17:41:32.145Z,15.33
2023-12-13T17:43:59.423Z,13.53
2023-12-13T17:46:26.760Z,10.50
2023-12-13T17:48:54.015Z,14.00
2023-12-13T17:51:21.362Z,16.50
2023-12-13T17:53:48.636Z,19.00
2023-12-13T17:56:19.234Z,18.47
2023-12-13T17:58:47.072Z,17.57
2023-12-13T18:01:14.635Z,17.40
2023-12-13T18:03:42.069Z,16.60
2023-12-13T18:06:09.530Z,21.57
2023-12-13T18:08:38.405Z,18.77
2023-12-13T18:11:06.121Z,18.13
2023-12-13T18:13:33.614Z,13.27
2023-12-13T18:16:00.914Z,13.10
2023-12-13T18:18:28.184Z,11.80
2023-12-13T18:20:55.524Z,12.17
2023-12-13T18:23:22.780Z,7.20
2023-12-13T18:25:53.208Z,6.67
2023-12-13T18:28:20.398Z,8.40
2023-12-13T18:30:47.632Z,13.80
2023-12-13T18:33:14.856Z,16.00
2023-12-13T18:35:42.041Z,17.80
2023-12-13T18:38:09.272Z,22.23
2023-12-13T18:40:36.838Z,21.43
2023-12-13T18:43:03.963Z,22.07
2023-12-13T18:45:31.370Z,21.00
2023-12-13T18:47:59.707Z,20.17
2023-12-13T18:50:26.864Z,21.27
2023-12-13T18:52:54.669Z,22.03
2023-12-13T18:55:21.953Z,26.77
2023-12-13T18:57:49.949Z,24.90
2023-12-13T19:00:17.159Z,24.67
2023-12-13T19:02:44.437Z,22.00
2023-12-13T19:05:11.692Z,22.70
2023-12-13T19:07:39.560Z,22.10
2023-12-13T19:10:07.734Z,24.10
2023-12-13T19:12:35.170Z,25.27
2023-12-13T19:15:02.592Z,24.93
2023-12-13T19:17:29.769Z,22.43
2023-12-13T19:19:57.349Z,17.27
2023-12-13T19:22:24.630Z,18.27
2023-12-13T19:24:51.769Z,15.83
2023-12-13T19:27:18.911Z,17.87
2023-12-13T19:29:46.034Z,15.37
2023-12-13T19:32:13.282Z,15.67
2023-12-13T19:34:40.548Z,16.00
2023-12-13T19:37:09.683Z,16.63
2023-12-13T19:39:37.225Z,17.43
2023-12-13T19:42:04.476Z,18.30
2023-12-13T19:44:32.190Z,16.73
2023-12-13T19:46:59.381Z,16.97
2023-12-13T19:49:26.755Z,16.03
2023-12-13T19:51:53.936Z,17.63
2023-12-13T19:54:21.129Z,20.67
2023-12-13T19:56:48.937Z,20.00
2023-12-13T19:59:16.259Z,24.57
2023-12-13T20:01:43.430Z,22.13
2023-12-13T20:04:10.695Z,39.87
2023-12-13T20:06:37.922Z,42.00
2023-12-13T20:09:05.511Z,59.00
2023-12-13T20:11:32.743Z,34.17
2023-12-13T20:14:03.458Z,29.03
2023-12-13T20:16:32.601Z,34.07
2023-12-13T20:18:59.847Z,23.43
2023-12-13T20:21:27.605Z,30.47
2023-12-13T20:23:54.846Z,30.23
2023-12-13T20:26:22.149Z,30.87
2023-12-13T20:28:49.345Z,30.67
2023-12-13T20:31:16.483Z,31.33
2023-12-13T20:33:43.717Z,29.60
2023-12-13T20:36:11.531Z,22.50
2023-12-13T20:38:38.751Z,28.93
2023-12-13T20:41:08.234Z,41.00
2023-12-13T20:43:35.791Z,29.33
2023-12-13T20:46:03.193Z,29.70
2023-12-13T20:48:30.347Z,26.13
2023-12-13T20:50:57.735Z,26.27
2023-12-13T20:53:25.131Z,26.67
2023-12-13T20:55:52.709Z,25.53
2023-12-13T20:58:19.898Z,25.10
2023-12-13T21:00:47.481Z,26.57
2023-12-13T21:03:14.693Z,26.83
2023-12-13T21:05:41.902Z,26.80
2023-12-13T21:08:09.176Z,22.47
2023-12-13T21:10:38.673Z,20.90
2023-12-13T21:13:05.895Z,19.90
2023-12-13T21:15:33.069Z,20.53
2023-12-13T21:18:00.385Z,19.77
2023-12-13T21:20:28.179Z,19.40
2023-12-13T21:22:55.447Z,18.53
2023-12-13T21:25:22.626Z,17.10
2023-12-13T21:27:50.042Z,17.00
2023-12-13T21:30:17.944Z,18.77
2023-12-13T21:32:45.192Z,19.17
2023-12-13T21:35:12.471Z,19.23
2023-12-13T21:37:39.725Z,21.23
2023-12-13T21:40:08.420Z,19.13
2023-12-13T21:42:36.256Z,23.13
2023-12-13T21:45:03.722Z,23.20
2023-12-13T21:47:32.575Z,23.00
2023-12-13T21:50:03.442Z,22.07
2023-12-13T21:52:36.344Z,22.70
2023-12-13T21:55:04.384Z,24.97
2023-12-13T21:57:31.609Z,30.00
2023-12-13T21:59:58.768Z,27.30
2023-12-13T22:02:25.932Z,25.57
2023-12-13T22:04:53.087Z,32.27
2023-12-13T22:07:20.294Z,33.27
2023-12-13T22:09:47.994Z,28.90
2023-12-13T22:12:15.157Z,29.60
2023-12-13T22:14:42.720Z,27.73
2023-12-13T22:17:10.147Z,25.10
2023-12-13T22:19:48.415Z,24.27
2023-12-13T22:22:16.062Z,26.07
2023-12-13T22:24:43.250Z,26.53
2023-12-13T22:27:10.411Z,26.30
2023-12-13T22:29:37.542Z,26.20
2023-12-13T22:32:05.222Z,27.80
2023-12-13T22:34:32.711Z,26.43
2023-12-13T22:36:59.962Z,28.07
2023-12-13T22:39:27.118Z,26.27
2023-12-13T22:41:54.279Z,25.07
2023-12-13T22:44:21.460Z,25.97
2023-12-13T22:46:48.713Z,25.67
2023-12-13T22:49:18.758Z,26.13
2023-12-13T22:52:18.248Z,27.23
2023-12-13T22:54:33.414Z,25.73
2023-12-13T22:57:00.562Z,24.17
2023-12-13T22:59:27.766Z,23.33
2023-12-13T23:01:57.886Z,24.80
2023-12-13T23:04:27.030Z,24.63
2023-12-13T23:06:54.293Z,23.80
2023-12-13T23:09:21.467Z,24.73
2023-12-13T23:11:48.658Z,24.63
2023-12-13T23:14:15.842Z,25.57
2023-12-13T23:16:43.139Z,23.17
2023-12-13T23:19:10.480Z,23.37
2023-12-13T23:21:38.175Z,23.67
2023-12-13T23:24:05.416Z,23.67
2023-12-13T23:26:32.548Z,23.70
2023-12-13T23:28:59.768Z,25.57
2023-12-13T23:31:33.380Z,28.47
2023-12-13T23:34:06.355Z,25.40
2023-12-13T23:36:34.600Z,27.60
2023-12-13T23:39:01.869Z,31.87
2023-12-13T23:41:28.996Z,36.10
2023-12-13T23:43:56.214Z,34.73
2023-12-13T23:46:23.341Z,29.50
2023-12-13T23:48:50.780Z,32.80
2023-12-13T23:51:18.033Z,32.93
2023-12-13T23:53:45.285Z,27.77
2023-12-13T23:56:25.072Z,26.60
2023-12-13T23:58:52.656Z,24.17
